createdAt,value
2018-05-21T00:00:54.887Z,11.90
2018-05-21T00:03:23.212Z,11.90
2018-05-21T00:05:51.844Z,12.00
2018-05-21T00:08:20.018Z,11.90
2018-05-21T00:10:48.311Z,11.90
2018-05-21T00:13:17.161Z,11.90
2018-05-21T00:15:44.980Z,11.90
2018-05-21T00:18:12.681Z,11.90
2018-05-21T00:20:40.405Z,11.90
2018-05-21T00:23:08.147Z,11.90
2018-05-21T00:25:35.879Z,11.90
2018-05-21T00:28:04.388Z,12.00
2018-05-21T00:30:32.081Z,12.00
2018-05-21T00:32:59.847Z,12.10
2018-05-21T00:35:27.532Z,12.10
2018-05-21T00:37:55.263Z,12.10
2018-05-21T00:40:22.970Z,12.20
2018-05-21T00:42:50.686Z,12.20
2018-05-21T00:45:18.396Z,12.20
2018-05-21T00:47:46.112Z,12.30
2018-05-21T00:50:13.853Z,12.30
2018-05-21T00:52:41.556Z,12.20
2018-05-21T00:55:24.186Z,12.20
2018-05-21T00:57:51.928Z,12.10
2018-05-21T01:00:19.673Z,12.00
2018-05-21T01:02:47.434Z,11.90
2018-05-21T01:05:15.117Z,11.80
2018-05-21T01:07:42.828Z,11.80
2018-05-21T01:10:11.335Z,11.60
2018-05-21T01:12:39.489Z,11.60
2018-05-21T01:15:07.305Z,11.60
2018-05-21T01:17:35.111Z,11.50
2018-05-21T01:20:02.815Z,11.40
2018-05-21T01:22:30.979Z,11.40
2018-05-21T01:24:59.534Z,11.20
2018-05-21T01:27:28.072Z,11.10
2018-05-21T01:29:55.752Z,11.10
2018-05-21T01:32:23.489Z,11.10
2018-05-21T01:34:51.231Z,11.20
2018-05-21T01:37:19.720Z,11.30
2018-05-21T01:39:48.197Z,11.50
2018-05-21T01:42:16.680Z,11.50
2018-05-21T01:44:45.146Z,11.40
2018-05-21T01:47:12.852Z,11.40
2018-05-21T01:49:40.542Z,11.30
2018-05-21T01:52:08.239Z,11.30
2018-05-21T01:54:35.934Z,11.30
2018-05-21T01:57:04.413Z,11.40
2018-05-21T01:59:32.267Z,11.40
2018-05-21T02:02:00.793Z,11.30
2018-05-21T02:04:28.904Z,11.30
2018-05-21T02:06:56.627Z,11.20
2018-05-21T02:09:24.333Z,11.20
2018-05-21T02:11:53.381Z,11.00
2018-05-21T02:14:21.080Z,11.00
2018-05-21T02:16:48.799Z,11.00
2018-05-21T02:19:16.476Z,10.90
2018-05-21T02:21:44.204Z,10.90
2018-05-21T02:24:11.896Z,10.80
2018-05-21T02:26:39.631Z,10.90
2018-05-21T02:29:08.116Z,10.80
2018-05-21T02:31:35.844Z,10.70
2018-05-21T02:34:03.579Z,10.80
2018-05-21T02:36:31.326Z,10.70
2018-05-21T02:38:59.007Z,10.60
2018-05-21T02:41:26.745Z,10.50
2018-05-21T02:43:55.217Z,10.30
2018-05-21T02:46:22.922Z,10.30
2018-05-21T02:48:50.677Z,10.30
2018-05-21T02:51:19.107Z,10.30
2018-05-21T02:53:46.828Z,10.30
2018-05-21T02:56:14.713Z,10.30
2018-05-21T02:58:42.458Z,10.30
2018-05-21T03:01:10.888Z,10.40
2018-05-21T03:03:38.587Z,10.40
2018-05-21T03:06:07.148Z,10.40
2018-05-21T03:08:34.862Z,10.40
2018-05-21T03:11:02.574Z,10.30
2018-05-21T03:13:30.284Z,10.20
2018-05-21T03:15:57.990Z,10.00
2018-05-21T03:18:25.708Z,10.00
2018-05-21T03:20:53.404Z,10.00
2018-05-21T03:23:21.162Z,10.00
2018-05-21T03:25:48.884Z,10.00
2018-05-21T03:28:16.667Z,10.00
2018-05-21T03:30:44.373Z,9.90
2018-05-21T03:33:12.077Z,9.90
2018-05-21T03:35:40.536Z,9.80
2018-05-21T03:38:08.232Z,9.80
2018-05-21T03:40:36.735Z,9.80
2018-05-21T03:43:04.464Z,9.80
2018-05-21T03:45:32.933Z,9.80
2018-05-21T03:48:00.640Z,9.80
2018-05-21T03:50:28.325Z,9.90
2018-05-21T03:52:56.115Z,10.00
2018-05-21T03:55:23.765Z,10.10
2018-05-21T03:57:51.465Z,10.00
2018-05-21T04:00:25.725Z,9.90
2018-05-21T04:02:59.381Z,9.90
2018-05-21T04:05:27.080Z,9.90
2018-05-21T04:07:55.472Z,9.90
2018-05-21T04:10:23.175Z,9.90
2018-05-21T04:12:51.033Z,10.00
2018-05-21T04:15:18.775Z,10.30
2018-05-21T04:17:46.471Z,10.40
2018-05-21T04:20:14.963Z,10.40
2018-05-21T04:22:42.686Z,10.40
2018-05-21T04:25:10.409Z,11.30
2018-05-21T04:27:38.114Z,12.40
2018-05-21T04:30:05.845Z,13.70
2018-05-21T04:32:33.579Z,14.60
2018-05-21T04:35:01.305Z,15.20
2018-05-21T04:37:29.010Z,15.80
2018-05-21T04:39:56.713Z,16.40
2018-05-21T04:42:24.864Z,17.40
2018-05-21T04:44:53.466Z,18.90
2018-05-21T04:47:21.399Z,18.90
2018-05-21T04:49:49.116Z,19.30
2018-05-21T04:52:17.577Z,20.00
2018-05-21T04:54:46.053Z,21.60
2018-05-21T04:57:14.977Z,22.60
2018-05-21T04:59:42.815Z,22.60
2018-05-21T05:02:11.264Z,23.70
2018-05-21T05:04:38.961Z,23.60
2018-05-21T05:07:07.444Z,23.30
2018-05-21T05:09:35.168Z,23.30
2018-05-21T05:12:02.872Z,23.60
2018-05-21T05:14:30.687Z,23.00
2018-05-21T05:16:58.385Z,21.90
2018-05-21T05:19:26.090Z,20.50
2018-05-21T05:21:53.805Z,20.00
2018-05-21T05:24:21.502Z,19.50
2018-05-21T05:26:49.198Z,18.80
2018-05-21T05:29:16.936Z,17.90
2018-05-21T05:31:45.391Z,16.20
2018-05-21T05:34:13.895Z,15.60
2018-05-21T05:36:42.374Z,15.30
2018-05-21T05:39:10.107Z,15.20
2018-05-21T05:41:37.831Z,15.10
2018-05-21T05:44:05.580Z,15.10
2018-05-21T05:46:34.028Z,15.20
2018-05-21T05:49:01.747Z,15.20
2018-05-21T05:51:29.436Z,15.10
2018-05-21T05:53:57.169Z,15.10
2018-05-21T05:56:24.862Z,15.30
2018-05-21T05:58:52.572Z,15.30
2018-05-21T06:01:20.296Z,15.50
2018-05-21T06:03:47.996Z,15.70
2018-05-21T06:06:16.462Z,16.10
2018-05-21T06:08:44.157Z,16.10
2018-05-21T06:11:11.911Z,16.30
2018-05-21T06:13:40.445Z,16.40
2018-05-21T06:16:08.069Z,16.60
2018-05-21T06:18:35.765Z,16.90
2018-05-21T06:21:03.535Z,17.10
2018-05-21T06:23:31.243Z,17.30
2018-05-21T06:25:59.728Z,17.60
2018-05-21T06:28:28.497Z,17.60
2018-05-21T06:30:56.192Z,17.80
2018-05-21T06:33:23.934Z,17.90
2018-05-21T06:35:52.645Z,18.10
2018-05-21T06:38:21.117Z,18.30
2018-05-21T06:40:49.643Z,18.40
2018-05-21T06:43:17.331Z,18.40
2018-05-21T06:45:45.044Z,18.60
2018-05-21T06:48:12.784Z,18.70
2018-05-21T06:50:41.621Z,18.80
2018-05-21T06:53:09.318Z,18.80
2018-05-21T06:55:37.902Z,18.90
2018-05-21T06:58:05.637Z,18.80
2018-05-21T07:00:33.365Z,18.90
2018-05-21T07:03:01.850Z,19.10
2018-05-21T07:05:30.331Z,19.20
2018-05-21T07:07:59.417Z,19.20
2018-05-21T07:10:27.804Z,19.40
2018-05-21T07:12:55.549Z,19.40
2018-05-21T07:15:23.252Z,19.50
2018-05-21T07:17:50.958Z,19.60
2018-05-21T07:20:18.666Z,19.60
2018-05-21T07:22:47.112Z,19.70
2018-05-21T07:25:14.854Z,19.70
2018-05-21T07:27:42.554Z,19.80
2018-05-21T07:30:10.304Z,19.90
2018-05-21T07:32:38.014Z,19.90
2018-05-21T07:35:06.506Z,20.10
2018-05-21T07:37:34.953Z,20.20
2018-05-21T07:40:02.666Z,20.10
2018-05-21T07:42:30.416Z,20.30
2018-05-21T07:44:58.906Z,20.40
2018-05-21T07:47:26.636Z,20.40
2018-05-21T07:49:55.135Z,20.50
2018-05-21T07:52:23.616Z,20.60
2018-05-21T07:54:51.319Z,20.60
2018-05-21T07:57:19.088Z,20.70
2018-05-21T07:59:46.771Z,20.80
2018-05-21T08:02:14.509Z,20.80
2018-05-21T08:04:42.233Z,20.90
2018-05-21T08:07:10.882Z,21.10
2018-05-21T08:09:38.620Z,21.10
2018-05-21T08:12:06.373Z,21.20
2018-05-21T08:14:34.463Z,21.20
2018-05-21T08:17:02.110Z,21.30
2018-05-21T08:19:30.577Z,21.40
2018-05-21T08:21:59.044Z,21.40
2018-05-21T08:24:27.540Z,21.40
2018-05-21T08:26:56.150Z,21.40
2018-05-21T08:29:25.244Z,21.40
2018-05-21T08:31:54.763Z,21.50
2018-05-21T08:34:24.544Z,21.50
2018-05-21T08:39:28.189Z,21.50
2018-05-21T08:41:56.837Z,21.60
2018-05-21T08:44:26.006Z,21.60
2018-05-21T08:46:55.622Z,21.80
2018-05-21T08:49:25.028Z,21.80
2018-05-21T08:51:54.257Z,21.80
2018-05-21T08:54:22.627Z,22.00
2018-05-21T08:56:51.737Z,22.10
2018-05-21T08:59:20.612Z,22.10
2018-05-21T09:01:50.980Z,22.00
2018-05-21T09:04:19.273Z,22.00
2018-05-21T09:06:48.410Z,22.00
2018-05-21T09:09:17.579Z,22.10
2018-05-21T09:11:45.855Z,22.10
2018-05-21T09:14:14.124Z,22.20
2018-05-21T09:16:43.449Z,22.30
2018-05-21T09:19:12.419Z,22.30
2018-05-21T09:21:41.533Z,22.40
2018-05-21T09:24:10.664Z,22.40
2018-05-21T09:26:39.721Z,22.30
2018-05-21T09:29:07.998Z,22.30
2018-05-21T09:31:37.259Z,22.10
2018-05-21T09:34:05.627Z,22.00
2018-05-21T09:36:33.860Z,22.00
2018-05-21T09:39:02.131Z,22.10
2018-05-21T09:41:30.493Z,22.20
2018-05-21T09:43:58.829Z,22.20
2018-05-21T09:46:27.920Z,22.50
2018-05-21T09:48:56.300Z,22.50
2018-05-21T09:51:24.543Z,22.60
2018-05-21T09:53:54.584Z,22.70
2018-05-21T09:56:22.863Z,22.70
2018-05-21T09:58:51.943Z,22.70
2018-05-21T10:01:20.625Z,22.70
2018-05-21T10:03:48.864Z,22.50
2018-05-21T10:06:17.110Z,22.40
2018-05-21T10:08:45.431Z,22.40
2018-05-21T10:11:14.432Z,22.50
2018-05-21T10:13:42.754Z,22.50
2018-05-21T10:16:11.814Z,22.50
2018-05-21T10:18:40.104Z,22.40
2018-05-21T10:21:08.424Z,22.50
2018-05-21T10:23:37.457Z,22.70
2018-05-21T10:26:05.831Z,22.70
2018-05-21T10:28:34.046Z,22.90
2018-05-21T10:31:02.625Z,23.00
2018-05-21T10:33:30.926Z,23.10
2018-05-21T10:35:59.189Z,23.20
2018-05-21T10:38:27.480Z,23.20
2018-05-21T10:40:55.865Z,23.30
2018-05-21T10:43:24.137Z,23.30
2018-05-21T10:45:53.344Z,23.40
2018-05-21T10:48:23.108Z,23.40
2018-05-21T10:50:51.376Z,23.40
2018-05-21T10:53:19.682Z,23.50
2018-05-21T10:55:49.366Z,23.50
2018-05-21T10:58:17.692Z,23.40
2018-05-21T11:00:46.016Z,23.40
2018-05-21T11:03:14.316Z,23.50
2018-05-21T11:05:43.553Z,23.50
2018-05-21T11:08:11.824Z,23.60
2018-05-21T11:10:40.114Z,23.60
2018-05-21T11:13:10.176Z,23.50
2018-05-21T11:15:38.500Z,23.40
2018-05-21T11:18:06.762Z,23.40
2018-05-21T11:20:35.024Z,23.40
2018-05-21T11:23:03.354Z,23.20
2018-05-21T11:25:31.650Z,23.20
2018-05-21T11:28:00.846Z,23.30
2018-05-21T11:30:29.805Z,23.30
2018-05-21T11:32:58.053Z,23.40
2018-05-21T11:35:26.389Z,23.40
2018-05-21T11:37:55.421Z,23.80
2018-05-21T11:40:23.834Z,23.80
2018-05-21T11:42:52.091Z,23.90
2018-05-21T11:45:20.395Z,24.00
2018-05-21T11:47:48.645Z,24.00
2018-05-21T11:50:17.024Z,24.00
2018-05-21T11:52:45.429Z,24.00
2018-05-21T11:55:13.695Z,24.10
2018-05-21T11:57:41.957Z,24.20
2018-05-21T12:00:11.935Z,24.30
2018-05-21T12:02:41.052Z,24.30
2018-05-21T12:05:09.291Z,24.30
2018-05-21T12:07:38.422Z,24.40
2018-05-21T12:10:07.458Z,24.50
2018-05-21T12:12:36.547Z,24.50
2018-05-21T12:15:04.862Z,24.50
2018-05-21T12:17:33.881Z,24.30
2018-05-21T12:20:02.167Z,24.30
2018-05-21T12:22:30.433Z,24.30
2018-05-21T12:24:58.723Z,24.20
2018-05-21T12:27:27.004Z,24.20
2018-05-21T12:29:55.276Z,24.20
2018-05-21T12:32:23.580Z,24.20
2018-05-21T12:34:51.850Z,24.10
2018-05-21T12:37:20.105Z,24.20
2018-05-21T12:39:48.415Z,24.20
2018-05-21T12:42:16.706Z,24.20
2018-05-21T12:44:44.971Z,24.30
2018-05-21T12:47:14.156Z,24.40
2018-05-21T12:49:43.654Z,24.60
2018-05-21T12:52:11.911Z,24.60
2018-05-21T12:54:40.274Z,24.60
2018-05-21T12:57:08.479Z,24.70
2018-05-21T12:59:37.165Z,24.70
2018-05-21T13:02:05.397Z,24.80
2018-05-21T13:04:34.478Z,25.00
2018-05-21T13:07:02.784Z,25.00
2018-05-21T13:09:31.787Z,25.00
2018-05-21T13:12:00.137Z,25.00
2018-05-21T13:14:29.860Z,24.80
2018-05-21T13:16:58.127Z,24.80
2018-05-21T13:19:26.474Z,24.90
2018-05-21T13:21:55.670Z,25.00
2018-05-21T13:24:24.893Z,25.00
2018-05-21T13:26:53.219Z,25.00
2018-05-21T13:29:21.450Z,25.00
2018-05-21T13:31:49.793Z,25.10
2018-05-21T13:34:18.064Z,25.20
2018-05-21T13:36:46.419Z,25.30
2018-05-21T13:39:14.835Z,25.20
2018-05-21T13:41:43.320Z,25.20
2018-05-21T13:44:11.566Z,25.20
2018-05-21T13:46:41.476Z,25.30
2018-05-21T13:49:12.301Z,25.30
2018-05-21T13:51:40.941Z,25.30
2018-05-21T13:54:09.191Z,25.30
2018-05-21T13:56:37.525Z,25.30
2018-05-21T13:59:05.800Z,25.20
2018-05-21T14:01:34.168Z,25.10
2018-05-21T14:04:02.409Z,25.00
2018-05-21T14:06:30.744Z,25.00
2018-05-21T14:08:59.023Z,25.00
2018-05-21T14:11:28.115Z,25.10
2018-05-21T14:13:56.360Z,25.10
2018-05-21T14:16:24.760Z,25.20
2018-05-21T14:18:53.932Z,25.30
2018-05-21T14:21:24.149Z,25.50
2018-05-21T14:23:53.205Z,25.50
2018-05-21T14:26:21.529Z,25.50
2018-05-21T14:28:50.260Z,25.50
2018-05-21T14:31:18.562Z,25.50
2018-05-21T14:33:47.594Z,25.60
2018-05-21T14:36:16.267Z,25.60
2018-05-21T14:38:44.570Z,25.70
2018-05-21T14:41:12.880Z,25.80
2018-05-21T14:43:41.209Z,25.70
2018-05-21T14:46:09.490Z,25.50
2018-05-21T14:48:37.755Z,25.50
2018-05-21T14:51:06.059Z,25.60
2018-05-21T14:53:34.294Z,25.60
2018-05-21T14:56:02.652Z,25.60
2018-05-21T14:58:32.386Z,25.60
2018-05-21T15:01:00.710Z,25.60
2018-05-21T15:03:30.639Z,25.70
2018-05-21T15:05:59.033Z,25.70
2018-05-21T15:08:27.720Z,25.70
2018-05-21T15:10:56.011Z,25.80
2018-05-21T15:13:25.095Z,25.60
2018-05-21T15:15:53.702Z,25.60
2018-05-21T15:18:23.466Z,25.40
2018-05-21T15:20:53.364Z,25.30
2018-05-21T15:23:21.646Z,25.30
2018-05-21T15:25:51.488Z,25.40
2018-05-21T15:28:19.797Z,25.40
2018-05-21T15:30:49.336Z,25.40
2018-05-21T15:33:17.950Z,25.40
2018-05-21T15:35:47.027Z,25.50
2018-05-21T15:38:15.286Z,25.40
2018-05-21T15:40:43.578Z,25.30
2018-05-21T15:43:11.955Z,25.30
2018-05-21T15:45:40.158Z,25.30
2018-05-21T15:48:08.451Z,25.30
2018-05-21T15:50:36.769Z,25.30
2018-05-21T15:53:05.824Z,25.40
2018-05-21T15:55:34.885Z,25.40
2018-05-21T15:58:03.192Z,25.40
2018-05-21T16:00:31.478Z,25.20
2018-05-21T16:02:59.991Z,25.20
2018-05-21T16:05:28.570Z,25.00
2018-05-21T16:07:57.635Z,25.00
2018-05-21T16:10:26.007Z,25.00
2018-05-21T16:12:54.909Z,25.10
2018-05-21T16:15:23.906Z,25.30
2018-05-21T16:17:52.214Z,25.30
2018-05-21T16:20:21.284Z,25.60
2018-05-21T16:22:49.571Z,25.50
2018-05-21T16:25:18.607Z,25.40
2018-05-21T16:27:46.917Z,25.30
2018-05-21T16:30:15.317Z,25.40
2018-05-21T16:32:43.603Z,25.30
2018-05-21T16:35:11.922Z,25.30
2018-05-21T16:37:40.932Z,25.30
2018-05-21T16:40:09.189Z,25.30
2018-05-21T16:42:37.656Z,25.30
2018-05-21T16:45:06.665Z,25.40
2018-05-21T16:47:35.023Z,25.30
2018-05-21T16:50:03.301Z,25.40
2018-05-21T16:52:32.396Z,25.40
2018-05-21T16:55:01.445Z,25.10
2018-05-21T16:57:29.761Z,25.10
2018-05-21T16:59:58.006Z,25.10
2018-05-21T17:02:26.311Z,25.00
2018-05-21T17:04:55.330Z,25.10
2018-05-21T17:07:24.535Z,25.10
2018-05-21T17:09:53.042Z,25.00
2018-05-21T17:12:22.196Z,25.10
2018-05-21T17:14:50.454Z,25.10
2018-05-21T17:17:18.712Z,25.10
2018-05-21T17:19:46.996Z,25.00
2018-05-21T17:22:15.293Z,24.80
2018-05-21T17:24:43.991Z,24.80
2018-05-21T17:27:13.080Z,24.60
2018-05-21T17:29:41.515Z,24.60
2018-05-21T17:32:12.222Z,24.50
2018-05-21T17:34:40.680Z,24.50
2018-05-21T17:37:08.978Z,24.50
2018-05-21T17:39:37.364Z,24.40
2018-05-21T17:42:06.469Z,24.20
2018-05-21T17:44:34.811Z,24.20
2018-05-21T17:47:03.900Z,24.20
2018-05-21T17:49:32.197Z,24.20
2018-05-21T17:52:01.245Z,24.00
2018-05-21T17:54:30.179Z,24.00
2018-05-21T17:57:00.873Z,24.00
2018-05-21T17:59:29.190Z,24.00
2018-05-21T18:01:58.849Z,23.90
2018-05-21T18:04:28.164Z,23.90
2018-05-21T18:06:57.010Z,23.90
2018-05-21T18:09:25.358Z,23.80
2018-05-21T18:11:53.671Z,23.80
2018-05-21T18:14:22.753Z,23.70
2018-05-21T18:16:51.026Z,23.70
2018-05-21T18:19:20.137Z,23.30
2018-05-21T18:21:49.225Z,23.30
2018-05-21T18:24:18.290Z,23.30
2018-05-21T18:26:46.601Z,23.20
2018-05-21T18:29:15.738Z,23.20
2018-05-21T18:31:44.175Z,23.10
2018-05-21T18:34:12.495Z,23.20
2018-05-21T18:36:40.751Z,23.20
2018-05-21T18:39:10.677Z,23.00
2018-05-21T18:41:40.172Z,23.00
2018-05-21T18:44:09.371Z,23.00
2018-05-21T18:46:38.503Z,22.90
2018-05-21T18:49:06.962Z,22.90
2018-05-21T18:51:35.248Z,22.80
2018-05-21T18:54:03.910Z,22.70
2018-05-21T18:56:33.906Z,22.50
2018-05-21T18:59:02.235Z,22.50
2018-05-21T19:01:31.272Z,22.40
2018-05-21T19:03:59.558Z,22.40
2018-05-21T19:06:28.263Z,22.40
2018-05-21T19:08:56.552Z,22.40
2018-05-21T19:11:24.864Z,22.20
2018-05-21T19:13:53.452Z,22.10
2018-05-21T19:16:21.850Z,21.90
2018-05-21T19:18:50.108Z,21.70
2018-05-21T19:21:18.454Z,21.60
2018-05-21T19:23:46.822Z,21.50
2018-05-21T19:26:15.896Z,21.30
2018-05-21T19:28:44.217Z,21.30
2018-05-21T19:31:12.577Z,21.20
2018-05-21T19:33:41.714Z,21.10
2018-05-21T19:36:10.066Z,21.00
2018-05-21T19:38:38.371Z,21.00
2018-05-21T19:41:07.670Z,20.90
2018-05-21T19:43:35.988Z,20.90
2018-05-21T19:46:04.687Z,21.00
2018-05-21T19:48:33.988Z,20.90
2018-05-21T19:51:02.331Z,20.80
2018-05-21T19:53:30.659Z,20.70
2018-05-21T19:55:59.953Z,20.50
2018-05-21T19:58:28.848Z,20.50
2018-05-21T20:00:57.225Z,20.50
2018-05-21T20:03:27.894Z,20.40
2018-05-21T20:05:56.291Z,20.40
2018-05-21T20:08:25.165Z,20.40
2018-05-21T20:10:53.602Z,20.40
2018-05-21T20:13:22.417Z,20.40
2018-05-21T20:15:50.926Z,20.20
2018-05-21T20:18:31.476Z,20.20
2018-05-21T20:21:00.599Z,20.20
2018-05-21T20:23:28.914Z,20.10
2018-05-21T20:25:57.498Z,20.20
2018-05-21T20:28:25.896Z,20.10
2018-05-21T20:30:54.205Z,19.90
2018-05-21T20:33:22.485Z,19.90
2018-05-21T20:35:50.788Z,19.70
2018-05-21T20:38:19.211Z,19.70
2018-05-21T20:40:47.508Z,19.70
2018-05-21T20:43:16.580Z,19.60
2018-05-21T20:45:44.953Z,19.60
2018-05-21T20:48:13.250Z,19.70
2018-05-21T20:50:42.361Z,19.60
2018-05-21T20:53:10.684Z,19.50
2018-05-21T20:55:39.255Z,19.50
2018-05-21T20:58:08.399Z,19.50
2018-05-21T21:00:37.363Z,19.50
2018-05-21T21:03:05.726Z,19.50
2018-05-21T21:05:34.191Z,19.50
2018-05-21T21:08:03.398Z,19.50
2018-05-21T21:10:31.721Z,19.50
2018-05-21T21:13:00.860Z,19.40
2018-05-21T21:15:29.146Z,19.50
2018-05-21T21:17:57.402Z,19.40
2018-05-21T21:20:25.774Z,19.30
2018-05-21T21:22:54.816Z,19.20
2018-05-21T21:25:23.127Z,19.20
2018-05-21T21:27:51.420Z,19.20
2018-05-21T21:30:19.661Z,19.20
2018-05-21T21:32:48.052Z,19.20
2018-05-21T21:35:16.209Z,19.20
2018-05-21T21:37:44.500Z,19.20
2018-05-21T21:40:12.754Z,19.30
2018-05-21T21:42:41.167Z,19.20
2018-05-21T21:45:09.496Z,19.10
2018-05-21T21:47:37.759Z,19.10
2018-05-21T21:50:06.788Z,19.00
2018-05-21T21:52:35.208Z,19.00
2018-05-21T21:55:03.497Z,19.00
2018-05-21T21:57:31.858Z,19.00
2018-05-21T22:00:00.101Z,19.00
2018-05-21T22:02:28.367Z,19.00
2018-05-21T22:04:56.608Z,19.00
2018-05-21T22:07:25.687Z,18.90
2018-05-21T22:09:54.073Z,18.90
2018-05-21T22:12:23.127Z,18.90
2018-05-21T22:14:51.388Z,18.90
2018-05-21T22:17:19.649Z,18.90
2018-05-21T22:19:47.937Z,18.90
2018-05-21T22:22:16.236Z,18.80
2018-05-21T22:24:44.531Z,18.70
2018-05-21T22:27:12.812Z,18.80
2018-05-21T22:29:41.069Z,18.70
2018-05-21T22:32:09.918Z,18.70
2018-05-21T22:34:38.968Z,18.60
2018-05-21T22:37:07.269Z,18.60
2018-05-21T22:39:35.654Z,18.60
2018-05-21T22:42:04.674Z,18.60
2018-05-21T22:44:44.278Z,18.50
2018-05-21T22:47:12.548Z,18.50
2018-05-21T22:49:40.830Z,18.40
2018-05-21T22:52:09.146Z,18.40
2018-05-21T22:54:37.379Z,18.40
2018-05-21T22:57:05.644Z,18.40
2018-05-21T22:59:33.899Z,18.40
2018-05-21T23:02:02.154Z,18.40
2018-05-21T23:04:31.154Z,18.40
2018-05-21T23:06:59.417Z,18.30
2018-05-21T23:09:28.476Z,18.40
2018-05-21T23:11:56.726Z,18.30
2018-05-21T23:14:25.002Z,18.40
2018-05-21T23:16:53.278Z,18.30
2018-05-21T23:19:21.518Z,18.30
2018-05-21T23:21:50.553Z,18.40
2018-05-21T23:24:18.860Z,18.40
2018-05-21T23:26:47.113Z,18.40
2018-05-21T23:29:15.393Z,18.40
2018-05-21T23:31:43.616Z,18.40
2018-05-21T23:34:13.471Z,18.40
2018-05-21T23:36:41.811Z,18.40
2018-05-21T23:39:10.036Z,18.40
2018-05-21T23:41:38.340Z,18.60
2018-05-21T23:44:06.823Z,18.50
2018-05-21T23:46:35.045Z,18.50
2018-05-21T23:49:03.371Z,18.50
2018-05-21T23:51:31.625Z,18.50
2018-05-21T23:53:59.900Z,18.50
2018-05-21T23:56:28.167Z,18.50
2018-05-21T23:58:56.428Z,18.40
